Time;durP1;ratioP1;P1;durP2;ratioP2;P2;SDS_P1;SDS_P2;PMS_P1;PMS_P2;Temp;Humidity;BMP_temperature;BMP_pressure;BME280_temperature;BME280_humidity;BME280_pressure;Samples;Min_cycle;Max_cycle;Signal;HPM_P1;HPM_P2
2021/04/19 00:01:54;;;;;;;25.98;14.95;;;1.50;99.90;;;;;;4751919;30;20518;-77
2021/04/19 00:04:26;;;;;;;22.02;13.27;;;1.50;99.90;;;;;;4737743;30;20163;-77
2021/04/19 00:06:57;;;;;;;20.85;13.73;;;1.50;99.90;;;;;;4737489;30;20360;-77
2021/04/19 00:09:28;;;;;;;19.90;14.07;;;1.60;99.90;;;;;;4737043;30;20416;-77
2021/04/19 00:12:00;;;;;;;22.77;13.40;;;1.60;99.90;;;;;;4751649;30;20066;-77
2021/04/19 00:14:31;;;;;;;20.98;12.90;;;1.70;99.90;;;;;;4737620;30;20062;-78
2021/04/19 00:17:02;;;;;;;18.48;12.40;;;1.70;99.90;;;;;;4767592;30;20043;-78
2021/04/19 00:19:34;;;;;;;20.38;13.50;;;1.70;99.90;;;;;;4751021;30;20407;-77
2021/04/19 00:22:05;;;;;;;18.67;12.23;;;1.60;99.90;;;;;;4737462;30;20051;-78
2021/04/19 00:24:36;;;;;;;20.10;13.23;;;1.50;99.90;;;;;;4752143;30;20052;-77
2021/04/19 00:27:07;;;;;;;22.17;13.48;;;1.30;99.90;;;;;;4751489;30;20062;-77
2021/04/19 00:29:39;;;;;;;23.73;14.15;;;1.10;99.90;;;;;;4736786;30;20050;-77
2021/04/19 00:32:10;;;;;;;22.42;13.68;;;1.10;99.90;;;;;;4737175;30;20057;-77
2021/04/19 00:34:41;;;;;;;21.65;14.70;;;1.10;99.90;;;;;;4767593;30;20048;-77
2021/04/19 00:37:12;;;;;;;24.33;15.60;;;1.20;99.90;;;;;;4767507;30;20047;-77
2021/04/19 00:39:44;;;;;;;24.13;13.63;;;1.30;99.90;;;;;;4751561;30;20047;-77
2021/04/19 00:42:16;;;;;;;20.67;12.93;;;1.30;99.90;;;;;;4737091;30;20055;-77
2021/04/19 00:44:48;;;;;;;22.15;13.75;;;1.30;99.90;;;;;;4737237;30;20051;-77
2021/04/19 00:47:20;;;;;;;23.27;13.80;;;1.40;99.90;;;;;;4751158;30;20535;-77
2021/04/19 00:49:51;;;;;;;23.55;13.52;;;1.40;99.90;;;;;;4736704;30;20052;-77
2021/04/19 00:52:23;;;;;;;21.70;14.00;;;1.40;99.90;;;;;;4751118;30;20058;-77
2021/04/19 00:54:57;;;;;;;24.30;15.07;;;1.50;99.90;;;;;;4733083;30;20370;-77
2021/04/19 00:57:30;;;;;;;23.90;14.30;;;1.50;99.90;;;;;;4737214;30;20056;-77
2021/04/19 01:00:03;;;;;;;20.77;13.75;;;1.50;99.90;;;;;;4765730;30;20056;-77
2021/04/19 01:02:34;;;;;;;22.77;13.48;;;1.60;99.90;;;;;;4750563;30;20132;-77
2021/04/19 01:05:13;;;;;;;22.70;14.65;;;1.60;99.90;;;;;;4750594;30;20058;-77
2021/04/19 01:07:45;;;;;;;24.52;14.70;;;1.60;99.90;;;;;;4739443;30;20047;-78
2021/04/19 01:10:12;;;;;;;24.63;14.65;;;1.60;99.90;;;;;;4739681;30;20471;-77
2021/04/19 01:12:44;;;;;;;22.77;13.68;;;1.60;99.90;;;;;;4740021;30;20154;-77
2021/04/19 01:15:17;;;;;;;21.90;13.55;;;1.60;99.90;;;;;;4769957;30;20036;-77
2021/04/19 01:17:50;;;;;;;20.67;13.95;;;1.60;99.90;;;;;;4739607;30;20146;-77
2021/04/19 01:20:21;;;;;;;20.55;13.52;;;1.60;99.90;;;;;;4754558;30;20672;-77
2021/04/19 01:22:53;;;;;;;22.20;13.82;;;1.60;99.90;;;;;;4740245;30;20428;-77
2021/04/19 01:25:28;;;;;;;27.65;15.15;;;1.60;99.90;;;;;;4740625;30;20144;-78
2021/04/19 01:27:59;;;;;;;28.58;15.88;;;1.60;99.90;;;;;;4739565;30;20048;-78
2021/04/19 01:30:35;;;;;;;27.02;16.15;;;1.60;99.90;;;;;;4754800;30;20040;-77
2021/04/19 01:33:07;;;;;;;28.42;16.23;;;1.70;99.90;;;;;;4739684;30;20056;-77
2021/04/19 01:35:40;;;;;;;27.13;16.58;;;1.60;99.90;;;;;;4753569;30;20040;-77
2021/04/19 01:38:08;;;;;;;25.83;15.70;;;1.60;99.90;;;;;;4753124;30;20074;-77
2021/04/19 01:40:41;;;;;;;26.73;16.20;;;1.70;99.90;;;;;;4753496;30;20151;-77
2021/04/19 01:43:12;;;;;;;24.73;15.57;;;1.70;99.90;;;;;;4754460;30;20062;-77
2021/04/19 01:45:51;;;;;;;27.60;15.73;;;1.70;99.90;;;;;;4740500;30;20055;-77
2021/04/19 01:48:24;;;;;;;22.02;13.95;;;1.70;99.90;;;;;;4754468;30;20039;-77
2021/04/19 01:50:56;;;;;;;23.83;14.47;;;1.80;99.90;;;;;;4739604;30;20731;-77
2021/04/19 01:53:29;;;;;;;22.20;12.85;;;1.80;99.90;;;;;;4739944;30;20309;-77
2021/04/19 01:56:03;;;;;;;20.88;13.38;;;1.80;99.90;;;;;;4753831;30;20480;-77
2021/04/19 01:58:39;;;;;;;24.10;15.00;;;1.80;99.90;;;;;;4753390;30;20052;-77
2021/04/19 02:01:11;;;;;;;25.33;16.33;;;1.70;99.90;;;;;;4739659;30;20052;-78
2021/04/19 02:04:08;;;;;;;25.80;16.17;;;1.70;99.90;;;;;;4753552;30;20060;-77
2021/04/19 02:07:01;;;;;;;27.08;15.98;;;1.70;99.90;;;;;;4754894;30;20054;-77
2021/04/19 02:10:05;;;;;;;34.58;17.70;;;1.70;99.90;;;;;;4752810;30;20583;-77
2021/04/19 02:12:54;;;;;;;31.67;14.63;;;1.70;99.90;;;;;;4754321;30;20044;-77
2021/04/19 02:15:37;;;;;;;25.42;14.45;;;1.70;99.90;;;;;;4739482;30;20500;-77
2021/04/19 02:18:41;;;;;;;25.33;15.48;;;1.70;99.90;;;;;;4751846;30;20052;-77
2021/04/19 02:21:25;;;;;;;25.63;15.25;;;1.70;99.90;;;;;;4739454;30;20569;-77
2021/04/19 02:24:00;;;;;;;22.52;14.38;;;1.80;99.90;;;;;;4739357;30;20483;-77
2021/04/19 02:26:35;;;;;;;25.00;16.60;;;1.80;99.90;;;;;;4739532;30;20146;-77
2021/04/19 02:29:21;;;;;;;24.00;15.18;;;1.70;99.90;;;;;;4738571;30;20048;-77
2021/04/19 02:31:59;;;;;;;25.20;14.57;;;1.70;99.90;;;;;;4739497;30;20075;-77
2021/04/19 02:34:39;;;;;;;28.70;16.13;;;1.70;99.90;;;;;;4753033;30;20043;-77
2021/04/19 02:37:12;;;;;;;24.40;15.55;;;1.80;99.90;;;;;;4753230;30;20044;-77
2021/04/19 02:39:48;;;;;;;28.35;16.25;;;1.70;99.90;;;;;;4753433;30;20542;-77
2021/04/19 02:42:16;;;;;;;25.80;15.45;;;1.80;99.90;;;;;;4738322;30;20143;-77
2021/04/19 02:44:53;;;;;;;25.80;15.05;;;1.80;99.90;;;;;;4739577;30;20055;-77
2021/04/19 02:47:37;;;;;;;25.10;15.13;;;1.80;99.90;;;;;;4740340;30;20159;-77
2021/04/19 02:50:21;;;;;;;25.27;15.30;;;1.90;99.90;;;;;;4740051;30;20144;-78
2021/04/19 02:52:54;;;;;;;25.17;14.95;;;1.80;99.90;;;;;;4768873;30;20062;-77
2021/04/19 02:55:27;;;;;;;22.08;14.00;;;1.90;99.90;;;;;;4738753;30;20052;-77
2021/04/19 02:58:06;;;;;;;;;;;2.00;99.90;;;;;;4738653;30;20047;-77
2021/04/19 03:00:47;;;;;;;25.40;15.48;;;1.90;99.90;;;;;;4738679;30;19945;-77
2021/04/19 03:03:24;;;;;;;24.50;15.73;;;2.00;99.90;;;;;;4738541;30;20048;-77
2021/04/19 03:06:04;;;;;;;26.50;15.25;;;2.00;99.90;;;;;;4739082;30;20489;-77
2021/04/19 03:08:36;;;;;;;29.10;15.35;;;2.00;99.90;;;;;;4737529;30;20062;-77
2021/04/19 03:11:28;;;;;;;23.48;16.10;;;2.10;99.90;;;;;;4752512;30;20512;-77
2021/04/19 03:14:02;;;;;;;27.95;16.67;;;1.90;99.90;;;;;;4738456;30;20047;-77
2021/04/19 03:16:54;;;;;;;26.88;16.70;;;1.90;99.90;;;;;;4739505;30;20044;-77
2021/04/19 03:19:28;;;;;;;26.25;16.73;;;1.90;99.90;;;;;;4737752;30;20063;-77
2021/04/19 03:22:00;;;;;;;28.52;16.95;;;1.90;99.90;;;;;;4752238;30;20468;-77
2021/04/19 03:24:32;;;;;;;31.17;17.08;;;1.90;99.90;;;;;;4752337;30;20052;-78
2021/04/19 03:27:10;;;;;;;25.15;15.93;;;2.00;99.90;;;;;;4752592;30;20475;-77
2021/04/19 03:29:49;;;;;;;30.05;16.95;;;2.00;99.90;;;;;;4738348;30;20048;-77
2021/04/19 03:32:30;;;;;;;28.65;15.98;;;2.00;99.90;;;;;;4738458;30;20051;-78
2021/04/19 03:35:07;;;;;;;27.92;15.68;;;2.00;99.90;;;;;;4738339;30;20135;-77
2021/04/19 03:37:42;;;;;;;26.10;15.38;;;2.00;99.90;;;;;;4752080;30;20052;-77
2021/04/19 03:40:29;;;;;;;23.83;15.50;;;2.00;99.90;;;;;;4738115;30;20047;-78
2021/04/19 03:43:10;;;;;;;27.75;15.00;;;2.00;99.90;;;;;;4738547;30;20060;-77
2021/04/19 03:46:04;;;;;;;28.23;16.10;;;2.00;99.90;;;;;;4740009;30;20056;-77
2021/04/19 03:48:52;;;;;;;28.55;15.52;;;2.00;99.90;;;;;;4738805;30;20484;-77
2021/04/19 03:51:43;;;;;;;25.63;15.48;;;2.00;99.90;;;;;;4739350;30;20110;-77
2021/04/19 03:54:10;;;;;;;30.45;15.63;;;2.00;99.90;;;;;;4737051;30;20056;-77
2021/04/19 03:56:43;;;;;;;27.27;16.42;;;2.00;99.90;;;;;;4752380;30;20075;-77
2021/04/19 03:59:24;;;;;;;27.85;16.30;;;2.00;99.90;;;;;;4738007;30;20120;-77
2021/04/19 04:02:05;;;;;;;28.48;16.63;;;2.00;99.90;;;;;;4767033;30;20058;-77
2021/04/19 04:04:59;;;;;;;27.23;16.98;;;2.00;99.90;;;;;;4750854;30;20048;-77
2021/04/19 04:08:00;;;;;;;23.95;14.77;;;2.00;99.90;;;;;;4750514;30;20071;-77
2021/04/19 04:10:33;;;;;;;27.55;16.42;;;2.00;99.90;;;;;;4754480;30;20077;-80
2021/04/19 04:13:04;;;;;;;30.95;16.85;;;1.90;99.90;;;;;;4745004;30;20048;-78
2021/04/19 04:15:52;;;;;;;27.33;16.70;;;1.80;99.90;;;;;;4738080;30;20048;-78
2021/04/19 04:18:27;;;;;;;30.48;16.27;;;1.70;99.90;;;;;;4752613;30;20048;-78
2021/04/19 04:21:01;;;;;;;26.52;16.77;;;1.60;99.90;;;;;;4751512;30;20051;-78
2021/04/19 04:23:34;;;;;;;30.40;17.42;;;1.70;99.90;;;;;;4737640;30;20052;-77
2021/04/19 04:26:05;;;;;;;30.50;17.42;;;1.70;99.90;;;;;;4737582;30;20056;-78
2021/04/19 04:28:38;;;;;;;27.40;17.03;;;1.70;99.90;;;;;;4737550;30;20526;-77
2021/04/19 04:31:13;;;;;;;26.45;16.35;;;1.70;99.90;;;;;;4738035;30;20067;-77
2021/04/19 04:33:50;;;;;;;27.48;16.20;;;1.70;99.90;;;;;;4738821;30;20043;-77
2021/04/19 04:36:22;;;;;;;27.80;16.13;;;1.70;99.90;;;;;;4738887;30;20043;-78
2021/04/19 04:38:52;;;;;;;28.52;16.38;;;1.80;99.90;;;;;;4737450;30;20052;-78
2021/04/19 04:41:29;;;;;;;26.23;16.00;;;1.80;99.90;;;;;;4738919;30;20047;-79
2021/04/19 04:43:58;;;;;;;25.27;16.50;;;1.80;99.90;;;;;;4752131;30;20090;-78
2021/04/19 04:46:35;;;;;;;;;;;1.80;99.90;;;;;;4753233;30;20512;-79
2021/04/19 04:49:08;;;;;;;26.63;15.90;;;1.90;99.90;;;;;;4751182;30;19932;-79
2021/04/19 04:51:42;;;;;;;26.63;15.32;;;1.90;99.90;;;;;;4753100;30;20062;-78
2021/04/19 04:54:17;;;;;;;24.88;15.65;;;1.90;99.90;;;;;;4738007;30;20090;-78
2021/04/19 04:56:55;;;;;;;27.95;16.13;;;1.90;99.90;;;;;;4737579;30;20058;-77
2021/04/19 04:59:28;;;;;;;23.98;15.63;;;1.90;99.90;;;;;;4737303;30;20134;-78
2021/04/19 05:02:00;;;;;;;26.05;16.10;;;2.00;99.90;;;;;;4737291;30;20526;-78
2021/04/19 05:04:32;;;;;;;22.40;14.65;;;2.00;99.90;;;;;;4751381;30;20142;-78
2021/04/19 05:07:03;;;;;;;23.65;15.65;;;2.00;99.90;;;;;;4737277;30;20405;-78
2021/04/19 05:09:35;;;;;;;26.55;15.73;;;2.00;99.90;;;;;;4737430;30;20072;-78
2021/04/19 05:12:07;;;;;;;23.88;15.73;;;2.10;99.90;;;;;;4737489;30;20500;-78
2021/04/19 05:14:39;;;;;;;27.95;16.15;;;2.10;99.90;;;;;;4752343;30;20062;-78
2021/04/19 05:17:11;;;;;;;27.75;17.38;;;2.20;99.90;;;;;;4737479;30;20071;-78
2021/04/19 05:19:42;;;;;;;25.23;15.27;;;2.20;99.90;;;;;;4737283;30;20075;-77
2021/04/19 05:22:13;;;;;;;25.02;17.20;;;2.30;99.90;;;;;;4732265;30;20080;-79
2021/04/19 05:24:44;;;;;;;27.00;17.75;;;2.30;99.90;;;;;;4749426;30;20511;-77
2021/04/19 05:27:16;;;;;;;26.88;17.05;;;2.40;99.90;;;;;;4764016;30;20142;-78
2021/04/19 05:29:48;;;;;;;27.40;17.52;;;2.40;99.90;;;;;;4738639;30;20118;-78
2021/04/19 05:32:21;;;;;;;28.48;17.05;;;2.40;99.90;;;;;;4738945;30;20147;-78
2021/04/19 05:34:55;;;;;;;30.85;16.80;;;2.50;99.90;;;;;;4739363;30;20419;-82
2021/04/19 05:37:23;;;;;;;29.80;17.38;;;2.60;99.90;;;;;;4738470;30;20048;-80
2021/04/19 05:39:55;;;;;;;28.00;16.58;;;2.60;99.90;;;;;;4739304;30;20052;-80
2021/04/19 05:42:26;;;;;;;27.77;17.35;;;2.70;99.90;;;;;;4752812;30;20051;-79
2021/04/19 05:44:58;;;;;;;30.48;18.27;;;2.80;99.90;;;;;;4739336;30;20071;-81
2021/04/19 05:47:29;;;;;;;32.33;18.80;;;2.90;99.90;;;;;;4739205;30;20110;-81
2021/04/19 05:50:00;;;;;;;29.58;17.67;;;2.90;99.90;;;;;;4737597;30;20500;-81
2021/04/19 05:52:52;;;;;;;31.95;19.77;;;3.00;99.90;;;;;;4770863;30;20132;-80
2021/04/19 05:55:27;;;;;;;43.03;25.70;;;3.10;99.90;;;;;;4741841;30;20051;-80
2021/04/19 05:58:23;;;;;;;36.95;22.70;;;3.20;99.90;;;;;;4756192;30;20048;-80
2021/04/19 06:01:15;;;;;;;33.85;20.80;;;3.30;99.90;;;;;;4741482;30;20144;-80
2021/04/19 06:04:03;;;;;;;35.67;20.75;;;3.30;99.90;;;;;;4755954;30;20142;-80
2021/04/19 06:07:10;;;;;;;35.40;20.52;;;3.40;99.90;;;;;;4741493;30;20430;-80
2021/04/19 06:10:14;;;;;;;39.05;23.88;;;3.40;99.90;;;;;;4759350;30;20530;-81
2021/04/19 06:12:55;;;;;;;33.08;21.42;;;3.50;99.90;;;;;;4755970;30;20055;-80
2021/04/19 06:15:27;;;;;;;32.15;19.45;;;3.60;99.90;;;;;;4753877;30;20050;-79
2021/04/19 06:18:00;;;;;;;31.85;18.98;;;3.60;99.90;;;;;;4764355;30;20063;-81
2021/04/19 06:20:28;;;;;;;79.45;37.30;;;3.70;99.90;;;;;;4765415;30;20115;-82
2021/04/19 06:23:21;;;;;;;103.03;44.65;;;3.70;99.90;;;;;;4751147;30;20052;-82
2021/04/19 06:26:55;;;;;;;59.30;26.92;;;3.80;99.90;;;;;;4737400;30;20048;-82
2021/04/19 06:34:11;;;;;;;97.47;46.65;;;4.00;99.90;;;;;;4779633;30;20058;-79
2021/04/19 06:37:41;;;;;;;64.10;42.17;;;4.20;99.90;;;;;;4767397;30;20052;-80
2021/04/19 06:40:12;;;;;;;46.47;26.08;;;4.30;99.90;;;;;;4748378;30;20071;-82
2021/04/19 06:42:40;;;;;;;97.40;45.80;;;4.50;99.90;;;;;;4749248;30;20139;-82
2021/04/19 06:45:14;;;;;;;62.38;32.10;;;4.50;99.90;;;;;;4743733;30;20044;-80
2021/04/19 06:47:40;;;;;;;46.08;28.95;;;4.60;99.90;;;;;;4754261;30;20074;-79
2021/04/19 06:50:08;;;;;;;57.63;32.20;;;4.70;99.90;;;;;;4738078;30;20101;-79
2021/04/19 06:52:35;;;;;;;54.72;32.55;;;4.80;99.90;;;;;;4756512;30;20051;-80
2021/04/19 06:55:02;;;;;;;80.00;41.25;;;4.90;99.90;;;;;;4741471;30;20052;-80
2021/04/19 06:57:34;;;;;;;102.50;48.53;;;5.00;99.90;;;;;;4760388;30;20142;-80
2021/04/19 07:00:05;;;;;;;40.10;25.40;;;5.00;99.90;;;;;;4765240;30;20063;-81
2021/04/19 07:02:48;;;;;;;34.75;22.33;;;5.10;99.90;;;;;;4758121;30;20059;-80
2021/04/19 07:05:27;;;;;;;39.25;23.63;;;5.30;99.90;;;;;;4754542;30;20055;-80
2021/04/19 07:08:19;;;;;;;57.78;22.60;;;5.40;99.90;;;;;;4752848;30;20059;-80
2021/04/19 07:10:58;;;;;;;42.15;25.45;;;5.40;99.90;;;;;;4753274;30;20467;-79
2021/04/19 07:13:31;;;;;;;45.88;25.63;;;5.50;99.90;;;;;;4738519;30;20091;-80
2021/04/19 07:15:58;;;;;;;48.13;26.02;;;5.50;99.90;;;;;;4751844;30;20087;-81
2021/04/19 07:18:29;;;;;;;47.08;25.13;;;5.50;99.90;;;;;;4738562;30;20473;-81
2021/04/19 07:20:56;;;;;;;38.08;23.27;;;5.50;99.90;;;;;;4734400;30;20600;-80
2021/04/19 07:23:30;;;;;;;46.35;25.88;;;5.60;99.90;;;;;;4749827;30;20048;-80
2021/04/19 07:25:57;;;;;;;35.63;21.23;;;5.70;99.90;;;;;;4750479;30;20052;-80
2021/04/19 07:28:35;;;;;;;33.00;19.52;;;5.80;99.90;;;;;;4751721;30;20576;-81
2021/04/19 07:31:03;;;;;;;26.95;17.92;;;6.00;99.90;;;;;;4758365;30;20508;-81
2021/04/19 07:33:32;;;;;;;29.95;18.15;;;6.10;99.90;;;;;;4759329;30;20043;-80
2021/04/19 07:36:22;;;;;;;29.80;20.15;;;6.30;99.90;;;;;;4758606;30;20047;-80
2021/04/19 07:38:50;;;;;;;29.83;17.75;;;6.40;99.90;;;;;;4757399;30;20052;-80
2021/04/19 12:57:26;;;;;;;12.02;7.70;;;13.50;77.20;;;;;;4773441;30;20050;-80
2021/04/19 12:59:54;;;;;;;11.52;8.85;;;13.50;78.70;;;;;;4742971;30;20090;-81
2021/04/19 13:24:21;;;;;;;13.63;9.68;;;12.80;80.40;;;;;;4781428;29;20072;-81
2021/04/19 13:27:44;;;;;;;14.18;10.63;;;12.70;84.10;;;;;;4769588;30;20052;-81
2021/04/19 13:30:33;;;;;;;18.05;12.07;;;12.50;85.20;;;;;;4786771;30;20067;-81
2021/04/19 13:33:06;;;;;;;17.13;12.15;;;12.50;90.80;;;;;;5064077;24;20022;-82
2021/04/19 13:35:35;;;;;;;17.35;11.98;;;12.50;93.00;;;;;;4752318;30;20123;-82
2021/04/19 13:38:25;;;;;;;18.45;13.43;;;12.40;93.20;;;;;;4768653;30;20056;-81
2021/04/19 13:41:24;;;;;;;19.15;14.68;;;12.40;97.60;;;;;;4760545;30;20117;-81
2021/04/19 13:43:54;;;;;;;23.45;16.15;;;12.30;99.40;;;;;;4761753;30;20056;-81
2021/04/19 13:46:34;;;;;;;22.65;17.08;;;12.10;99.90;;;;;;4735783;30;20086;-81
2021/04/19 13:49:05;;;;;;;23.92;17.10;;;12.10;99.90;;;;;;4738745;30;20052;-81
2021/04/19 13:51:37;;;;;;;25.30;19.33;;;12.00;99.90;;;;;;4727617;30;20095;-82
2021/04/19 13:54:04;;;;;;;25.77;18.40;;;11.90;99.90;;;;;;4743325;30;20113;-82
2021/04/19 13:56:30;;;;;;;24.67;17.23;;;11.80;99.90;;;;;;4737332;30;20056;-81
2021/04/19 13:59:02;;;;;;;23.10;16.90;;;11.80;99.90;;;;;;4742283;30;20056;-82
2021/04/19 14:01:30;;;;;;;26.98;17.95;;;11.70;99.90;;;;;;4739771;30;20052;-82
2021/04/19 14:04:03;;;;;;;22.30;16.92;;;11.70;99.90;;;;;;5296619;24;20047;-81
2021/04/19 14:06:31;;;;;;;23.45;17.33;;;11.60;99.90;;;;;;4760564;30;20058;-80
2021/04/19 14:09:03;;;;;;;27.48;18.08;;;11.60;99.90;;;;;;4769487;29;20043;-80
2021/04/19 14:11:29;;;;;;;26.40;18.40;;;11.50;99.90;;;;;;4768213;30;20066;-80
2021/04/19 14:13:56;;;;;;;26.60;17.90;;;11.40;99.90;;;;;;4780223;30;20078;-80
2021/04/19 14:16:23;;;;;;;25.20;17.95;;;11.30;99.90;;;;;;4763015;30;20120;-80
2021/04/19 14:18:50;;;;;;;27.10;18.13;;;11.20;99.90;;;;;;4760792;30;20052;-81
2021/04/19 14:21:17;;;;;;;28.40;17.67;;;11.10;99.90;;;;;;4778171;30;20051;-81
2021/04/19 14:23:43;;;;;;;29.23;18.35;;;11.10;99.90;;;;;;4779569;30;20055;-81
2021/04/19 14:26:15;;;;;;;27.15;19.60;;;11.10;99.90;;;;;;4766038;30;20047;-81
2021/04/19 14:28:47;;;;;;;24.45;17.42;;;11.10;99.90;;;;;;4775154;30;20058;-81
2021/04/19 14:31:14;;;;;;;24.08;17.60;;;11.10;99.90;;;;;;4781490;29;20059;-80
2021/04/19 14:33:44;;;;;;;22.88;17.58;;;11.20;99.90;;;;;;4783595;29;20047;-80
2021/04/19 14:36:11;;;;;;;25.23;16.52;;;11.20;99.90;;;;;;4796581;29;20057;-80
2021/04/19 14:38:38;;;;;;;25.85;16.23;;;11.20;99.90;;;;;;4796332;29;20070;-81
2021/04/19 14:41:04;;;;;;;29.40;17.90;;;11.10;99.90;;;;;;4787950;29;20051;-82
2021/04/19 15:08:35;;;;;;;25.42;15.13;;;13.40;99.90;;;;;;4794998;24;20051;-81
2021/04/19 15:27:41;;;;;;;18.50;13.98;;;14.40;96.20;;;;;;4725798;30;20124;-82
2021/04/19 15:30:11;;;;;;;20.10;14.57;;;14.50;95.80;;;;;;4759943;30;20059;-81
2021/04/19 15:32:50;;;;;;;18.45;13.95;;;14.10;96.40;;;;;;4911186;24;20044;-80
2021/04/19 15:35:21;;;;;;;24.40;16.95;;;13.50;97.00;;;;;;4790574;29;20094;-79
2021/04/19 15:37:53;;;;;;;20.95;13.02;;;13.00;98.70;;;;;;4769572;30;20261;-79
2021/04/19 15:40:25;;;;;;;20.10;13.32;;;12.60;97.50;;;;;;4749222;29;20793;-78
2021/04/19 15:42:51;;;;;;;16.60;13.07;;;12.30;98.80;;;;;;4782339;29;20058;-81
2021/04/19 15:45:23;;;;;;;18.98;13.27;;;12.40;99.30;;;;;;4776797;29;20050;-80
2021/04/19 15:47:49;;;;;;;18.23;13.93;;;12.30;99.30;;;;;;4770169;30;20130;-79
2021/04/19 15:50:15;;;;;;;18.40;12.60;;;12.40;99.40;;;;;;4770502;30;20062;-80
2021/04/19 15:52:42;;;;;;;21.35;14.23;;;12.90;99.80;;;;;;4772931;30;20445;-81
2021/04/19 15:55:09;;;;;;;23.95;14.02;;;13.60;97.80;;;;;;4762416;30;20057;-81
2021/04/19 15:57:40;;;;;;;18.80;14.45;;;13.90;94.50;;;;;;4761560;30;20051;-81
2021/04/19 16:00:12;;;;;;;24.05;14.95;;;13.80;94.10;;;;;;4757551;30;20059;-80
2021/04/19 16:02:38;;;;;;;18.60;14.05;;;13.80;94.70;;;;;;4756882;30;20094;-81
2021/04/19 16:05:05;;;;;;;17.58;13.50;;;13.90;93.10;;;;;;4756928;30;20082;-81
2021/04/19 16:07:36;;;;;;;19.20;13.55;;;14.00;91.90;;;;;;4757261;30;20051;-82
2021/04/19 16:10:08;;;;;;;27.48;12.93;;;14.20;91.40;;;;;;4771472;30;20051;-81
2021/04/19 16:12:34;;;;;;;18.90;13.52;;;14.00;90.00;;;;;;4756706;30;20069;-81
2021/04/19 16:15:06;;;;;;;17.98;12.88;;;13.60;90.80;;;;;;4757499;30;20138;-81
2021/04/19 16:17:32;;;;;;;16.73;11.93;;;13.10;90.80;;;;;;4756735;30;20492;-81
2021/04/19 16:20:04;;;;;;;15.73;12.25;;;12.60;92.30;;;;;;4757506;30;20058;-81
2021/04/19 16:22:36;;;;;;;14.70;11.13;;;12.50;94.10;;;;;;4757423;30;20533;-81
2021/04/19 16:25:07;;;;;;;13.68;10.73;;;12.20;94.00;;;;;;4757551;30;20507;-81
2021/04/19 16:27:40;;;;;;;13.05;11.13;;;11.90;94.70;;;;;;4757326;30;20067;-81
2021/04/19 16:30:09;;;;;;;14.80;10.30;;;11.70;94.70;;;;;;4756829;30;20051;-81
2021/04/19 16:32:40;;;;;;;19.27;11.68;;;11.50;95.50;;;;;;4771342;29;20507;-81
2021/04/19 16:35:07;;;;;;;15.90;12.13;;;11.40;97.30;;;;;;4771684;29;20055;-81
2021/04/19 16:37:38;;;;;;;16.65;11.43;;;11.40;98.60;;;;;;4756758;30;20052;-81
2021/04/19 16:40:06;;;;;;;18.00;12.15;;;11.30;99.60;;;;;;4756780;30;20606;-81
2021/04/19 16:42:38;;;;;;;15.82;11.68;;;11.20;99.90;;;;;;4759990;30;20145;-82
2021/04/19 16:45:50;;;;;;;17.10;10.17;;;11.10;99.90;;;;;;4764176;30;20067;-81
2021/04/19 16:48:17;;;;;;;13.88;10.80;;;11.10;99.90;;;;;;4757898;30;20052;-80
2021/04/19 16:50:43;;;;;;;14.32;10.65;;;11.00;99.90;;;;;;4773012;30;20054;-81
2021/04/19 16:53:15;;;;;;;14.82;10.65;;;10.90;99.90;;;;;;4772089;30;20104;-79
2021/04/19 16:55:46;;;;;;;15.43;10.55;;;10.90;99.90;;;;;;4769795;30;20051;-77
2021/04/19 16:58:17;;;;;;;14.32;11.43;;;10.80;99.90;;;;;;4770277;30;20047;-77
2021/04/19 17:00:49;;;;;;;14.75;10.90;;;10.70;99.90;;;;;;4770207;30;20524;-78
2021/04/19 17:03:16;;;;;;;13.23;10.63;;;10.60;99.90;;;;;;4770003;30;20052;-78
2021/04/19 17:05:49;;;;;;;14.15;10.13;;;10.50;99.90;;;;;;4770286;30;20057;-78
2021/04/19 17:08:22;;;;;;;;;;;10.40;99.90;;;;;;4771579;30;20138;-77
2021/04/19 17:10:48;;;;;;;14.27;10.48;;;10.30;99.90;;;;;;4770068;30;19926;-78
2021/04/19 17:13:19;;;;;;;13.35;10.45;;;10.20;99.90;;;;;;4756323;30;20427;-78
2021/04/19 17:15:50;;;;;;;12.93;10.13;;;10.20;99.90;;;;;;4770068;30;20039;-78
2021/04/19 17:18:22;;;;;;;15.05;10.82;;;10.20;99.90;;;;;;4755934;30;20047;-78
2021/04/19 17:20:53;;;;;;;17.35;11.00;;;10.10;99.90;;;;;;4756488;30;20076;-77
2021/04/19 17:23:26;;;;;;;15.85;11.20;;;10.00;99.90;;;;;;4756249;30;20077;-77
2021/04/19 17:25:58;;;;;;;16.88;10.52;;;10.00;99.90;;;;;;4756415;30;20054;-77
2021/04/19 17:28:29;;;;;;;14.20;9.93;;;9.90;99.90;;;;;;4771162;30;20047;-78
2021/04/19 17:31:00;;;;;;;14.10;10.57;;;10.00;99.90;;;;;;4770426;30;20044;-77
2021/04/19 17:33:31;;;;;;;14.80;11.15;;;9.90;99.90;;;;;;4771367;30;20049;-77
2021/04/19 17:36:03;;;;;;;17.27;12.85;;;9.90;99.90;;;;;;4770525;30;20071;-77
2021/04/19 17:38:34;;;;;;;17.05;12.68;;;9.90;99.90;;;;;;4756567;30;20138;-77
2021/04/19 17:41:07;;;;;;;19.63;14.60;;;9.90;99.90;;;;;;4770404;30;20051;-78
2021/04/19 17:43:39;;;;;;;18.02;13.15;;;9.90;99.90;;;;;;4758598;30;20052;-80
2021/04/19 17:47:12;;;;;;;17.42;12.20;;;9.90;99.90;;;;;;4794996;29;20061;-83
2021/04/19 18:49:43;;;;;;;14.65;10.27;;;9.40;99.90;;;;;;4683884;30;20103;-81
2021/04/19 18:53:28;;;;;;;14.27;10.30;;;9.40;99.90;;;;;;5222160;24;20027;-82
2021/04/19 19:32:26;;;;;;;11.75;8.15;;;8.90;99.90;;;;;;2920424;24;20468;-80
2021/04/19 21:02:17;;;;;;;16.65;9.52;;;5.60;99.90;;;;;;4777856;29;20046;-81
2021/04/19 21:04:49;;;;;;;13.52;9.50;;;5.50;99.90;;;;;;4750280;30;20076;-79
2021/04/19 21:07:21;;;;;;;14.70;8.82;;;5.50;99.90;;;;;;4749930;30;20048;-80
2021/04/19 21:09:52;;;;;;;14.05;10.27;;;5.50;99.90;;;;;;4749438;30;20055;-79
2021/04/19 21:12:23;;;;;;;15.98;9.70;;;5.40;99.90;;;;;;4749844;30;20075;-79
2021/04/19 21:14:54;;;;;;;12.68;10.02;;;5.50;99.90;;;;;;4750359;30;20048;-80
2021/04/19 21:17:21;;;;;;;14.68;9.95;;;5.50;99.90;;;;;;4750164;30;20043;-80
2021/04/19 21:19:53;;;;;;;13.10;9.50;;;5.50;99.90;;;;;;4735359;30;20138;-80
2021/04/19 21:22:24;;;;;;;15.55;10.18;;;5.60;99.90;;;;;;4766318;30;20051;-80
2021/04/19 21:24:55;;;;;;;18.58;10.80;;;5.60;99.90;;;;;;4739577;30;20055;-80
2021/04/19 21:27:21;;;;;;;14.60;10.30;;;5.70;99.90;;;;;;4738785;30;20113;-79
2021/04/19 21:29:53;;;;;;;14.70;10.43;;;5.80;99.90;;;;;;4753595;30;20052;-79
2021/04/19 21:32:24;;;;;;;15.70;10.50;;;5.80;99.90;;;;;;4738950;30;20067;-80
2021/04/19 21:34:56;;;;;;;16.77;11.30;;;5.90;99.90;;;;;;4753475;30;20058;-79
2021/04/19 21:37:27;;;;;;;16.58;11.07;;;5.90;99.90;;;;;;4753906;30;20072;-79
2021/04/19 21:39:59;;;;;;;16.42;11.70;;;6.00;99.90;;;;;;4738690;30;20058;-79
2021/04/19 21:42:30;;;;;;;17.38;12.20;;;6.10;99.90;;;;;;4739063;30;20052;-80
2021/04/19 21:45:03;;;;;;;18.10;12.35;;;6.10;99.90;;;;;;4753197;30;20047;-79
2021/04/19 21:47:35;;;;;;;18.30;11.55;;;6.10;99.90;;;;;;4753052;30;20596;-79
2021/04/19 21:50:07;;;;;;;15.85;10.95;;;6.20;99.90;;;;;;4738993;30;20052;-79
2021/04/19 21:52:38;;;;;;;15.18;11.00;;;6.20;99.90;;;;;;4768722;30;20467;-79
2021/04/19 21:55:11;;;;;;;17.42;12.00;;;6.20;99.90;;;;;;4739092;30;20048;-79
2021/04/19 21:57:42;;;;;;;17.67;11.90;;;6.20;99.90;;;;;;4738173;30;20081;-80
2021/04/19 22:00:11;;;;;;;17.88;10.98;;;6.20;99.90;;;;;;4752935;30;20066;-79
2021/04/19 22:02:42;;;;;;;15.82;11.38;;;6.10;99.90;;;;;;4753398;30;20051;-80
2021/04/19 22:05:13;;;;;;;16.30;11.30;;;6.10;99.90;;;;;;4739036;30;20447;-79
2021/04/19 22:07:45;;;;;;;15.50;11.20;;;6.10;99.90;;;;;;4737903;30;20059;-80
2021/04/19 22:10:16;;;;;;;17.83;11.80;;;6.10;99.90;;;;;;4753430;30;20432;-79
2021/04/19 22:12:47;;;;;;;15.95;11.82;;;6.10;99.90;;;;;;4738594;30;20105;-79
2021/04/19 22:15:14;;;;;;;18.52;12.13;;;6.10;99.90;;;;;;4737930;30;20558;-80
2021/04/19 22:17:46;;;;;;;17.08;11.65;;;6.10;99.90;;;;;;4752632;30;20134;-80
2021/04/19 22:20:18;;;;;;;17.05;11.57;;;6.10;99.90;;;;;;4752821;30;20142;-79
2021/04/19 22:22:51;;;;;;;17.10;11.35;;;6.10;99.90;;;;;;4738171;30;20506;-79
2021/04/19 22:25:20;;;;;;;18.15;11.80;;;6.10;99.90;;;;;;4738219;30;20095;-80
2021/04/19 22:27:48;;;;;;;17.33;12.18;;;6.20;99.90;;;;;;4767677;30;20791;-80
2021/04/19 22:30:20;;;;;;;16.08;11.75;;;6.20;99.90;;;;;;4738409;30;20056;-80
2021/04/19 22:32:53;;;;;;;17.88;12.23;;;6.20;99.90;;;;;;4752227;30;20478;-80
2021/04/19 22:35:24;;;;;;;16.77;10.98;;;6.20;99.90;;;;;;4752364;30;20051;-80
2021/04/19 22:37:55;;;;;;;19.80;11.85;;;6.20;99.90;;;;;;4737441;30;20141;-80
2021/04/19 22:40:28;;;;;;;15.77;11.38;;;6.30;99.90;;;;;;4738465;30;20419;-80
2021/04/19 22:43:00;;;;;;;15.18;11.88;;;6.30;99.90;;;;;;4752072;30;20064;-80